createdAt,value
2023-03-15T00:01:46.460Z,92.10
2023-03-15T00:04:14.497Z,92.39
2023-03-15T00:06:41.080Z,92.33
2023-03-15T00:09:07.624Z,92.49
2023-03-15T00:11:34.103Z,92.49
2023-03-15T00:14:02.394Z,92.56
2023-03-15T00:16:29.528Z,92.62
2023-03-15T00:18:56.415Z,92.79
2023-03-15T00:21:23.454Z,92.82
2023-03-15T00:23:50.365Z,92.72
2023-03-15T00:26:17.056Z,92.91
2023-03-15T00:28:43.675Z,93.00
2023-03-15T00:31:20.889Z,93.06
2023-03-15T00:33:48.613Z,93.01
2023-03-15T00:36:16.196Z,93.15
2023-03-15T00:38:46.323Z,93.15
2023-03-15T00:41:15.717Z,93.03
2023-03-15T00:43:42.818Z,93.03
2023-03-15T00:46:09.610Z,93.02
2023-03-15T00:48:36.171Z,93.20
2023-03-15T00:51:10.046Z,92.86
2023-03-15T00:53:37.975Z,93.07
2023-03-15T00:56:15.269Z,93.14
2023-03-15T00:58:42.365Z,92.99
2023-03-15T01:01:12.514Z,93.09
2023-03-15T01:03:39.446Z,92.96
2023-03-15T01:06:08.646Z,92.95
2023-03-15T01:08:35.504Z,93.02
2023-03-15T01:11:07.473Z,92.87
2023-03-15T01:13:34.331Z,92.91
2023-03-15T01:16:00.848Z,93.13
2023-03-15T01:18:27.505Z,93.02
2023-03-15T01:20:54.010Z,93.06
2023-03-15T01:23:20.972Z,92.93
2023-03-15T01:25:47.484Z,93.05
2023-03-15T01:28:13.914Z,93.19
2023-03-15T01:30:40.367Z,93.29
2023-03-15T01:33:06.819Z,93.54
2023-03-15T01:35:33.242Z,93.54
2023-03-15T01:37:59.746Z,93.72
2023-03-15T01:40:26.169Z,93.99
2023-03-15T01:43:12.148Z,93.90
2023-03-15T01:45:59.602Z,94.17
2023-03-15T01:48:33.702Z,94.32
2023-03-15T01:51:02.525Z,94.30
2023-03-15T01:53:31.885Z,94.31
2023-03-15T01:56:00.973Z,94.48
2023-03-15T01:58:28.539Z,94.54
2023-03-15T02:00:55.042Z,94.49
2023-03-15T02:03:24.852Z,94.29
2023-03-15T02:05:57.082Z,94.55
2023-03-15T02:08:29.035Z,94.72
2023-03-15T02:10:58.751Z,94.67
2023-03-15T02:13:27.479Z,95.10
2023-03-15T02:15:54.578Z,94.77
2023-03-15T02:18:21.387Z,94.94
2023-03-15T02:21:00.257Z,95.02
2023-03-15T02:23:28.094Z,94.77
2023-03-15T02:26:00.504Z,95.12
2023-03-15T02:28:27.550Z,94.89
2023-03-15T02:30:54.373Z,94.90
2023-03-15T02:33:28.307Z,95.04
2023-03-15T02:35:56.045Z,94.95
2023-03-15T02:38:22.828Z,95.09
2023-03-15T02:40:52.859Z,95.10
2023-03-15T02:43:25.079Z,95.04
2023-03-15T02:45:51.750Z,95.21
2023-03-15T02:48:18.982Z,95.04
2023-03-15T02:50:45.786Z,95.10
2023-03-15T02:53:12.518Z,95.22
2023-03-15T02:55:39.475Z,95.00
2023-03-15T02:58:05.946Z,95.36
2023-03-15T03:00:32.832Z,95.10
2023-03-15T03:02:59.507Z,95.44
2023-03-15T03:05:26.748Z,95.22
2023-03-15T03:07:53.276Z,95.33
2023-03-15T03:10:20.603Z,95.47
2023-03-15T03:12:47.507Z,95.30
2023-03-15T03:15:13.915Z,95.42
2023-03-15T03:17:40.416Z,95.45
2023-03-15T03:20:09.893Z,95.42
2023-03-15T03:22:37.680Z,95.49
2023-03-15T03:25:06.303Z,95.55
2023-03-15T03:27:36.628Z,95.74
2023-03-15T03:30:09.556Z,95.62
2023-03-15T03:32:36.224Z,95.61
2023-03-15T03:35:02.950Z,95.64
2023-03-15T03:37:30.845Z,95.42
2023-03-15T03:39:57.958Z,95.56
2023-03-15T03:42:24.370Z,95.55
2023-03-15T03:44:50.983Z,95.72
2023-03-15T03:47:17.418Z,95.98
2023-03-15T03:49:43.780Z,95.83
2023-03-15T03:52:10.344Z,95.84
2023-03-15T03:54:36.747Z,95.88
2023-03-15T03:57:03.410Z,95.70
2023-03-15T03:59:29.808Z,95.85
2023-03-15T04:01:56.200Z,95.73
2023-03-15T04:04:22.673Z,96.03
2023-03-15T04:06:50.768Z,95.99
2023-03-15T04:09:18.587Z,96.17
2023-03-15T04:11:45.110Z,96.16
2023-03-15T04:14:12.928Z,96.06
2023-03-15T04:16:39.639Z,96.27
2023-03-15T04:19:07.031Z,96.18
2023-03-15T04:21:33.887Z,96.32
2023-03-15T04:24:03.471Z,96.26
2023-03-15T04:26:30.537Z,96.33
2023-03-15T04:28:58.579Z,96.30
2023-03-15T04:31:27.423Z,96.30
2023-03-15T04:33:54.705Z,96.35
2023-03-15T04:36:22.980Z,96.31
2023-03-15T04:38:50.274Z,96.48
2023-03-15T04:41:18.028Z,96.37
2023-03-15T04:43:44.767Z,96.51
2023-03-15T04:46:11.500Z,96.40
2023-03-15T04:48:37.893Z,96.41
2023-03-15T04:51:04.443Z,96.52
2023-03-15T04:53:30.912Z,96.40
2023-03-15T04:55:57.369Z,96.37
2023-03-15T04:58:23.873Z,96.42
2023-03-15T05:00:50.268Z,96.46
2023-03-15T05:03:16.643Z,96.40
2023-03-15T05:05:47.646Z,96.37
2023-03-15T05:08:14.341Z,96.38
2023-03-15T05:10:40.758Z,96.55
2023-03-15T05:13:07.171Z,96.50
2023-03-15T05:15:33.585Z,96.47
2023-03-15T05:18:00.018Z,96.62
2023-03-15T05:20:26.406Z,96.60
2023-03-15T05:22:55.432Z,96.56
2023-03-15T05:25:22.111Z,96.78
2023-03-15T05:27:48.705Z,96.72
2023-03-15T05:30:16.274Z,96.81
2023-03-15T05:32:44.826Z,96.84
2023-03-15T05:35:13.088Z,96.76
2023-03-15T05:37:40.226Z,96.91
2023-03-15T05:40:10.314Z,96.88
2023-03-15T05:42:36.871Z,96.88
2023-03-15T05:45:03.455Z,96.93
2023-03-15T05:47:29.930Z,97.07
2023-03-15T05:49:56.327Z,96.94
2023-03-15T05:52:22.806Z,96.89
2023-03-15T05:54:49.537Z,97.09
2023-03-15T05:57:15.954Z,97.00
2023-03-15T05:59:42.448Z,96.92
2023-03-15T06:02:08.994Z,96.90
2023-03-15T06:04:37.845Z,96.99
2023-03-15T06:07:05.065Z,96.85
2023-03-15T06:09:32.065Z,97.00
2023-03-15T06:11:59.109Z,96.94
2023-03-15T06:14:27.476Z,97.00
2023-03-15T06:16:54.084Z,97.10
2023-03-15T06:19:21.350Z,97.03
2023-03-15T06:21:48.724Z,97.01
2023-03-15T06:24:15.463Z,97.20
2023-03-15T06:26:42.038Z,97.11
2023-03-15T06:29:08.896Z,97.06
2023-03-15T06:31:35.658Z,97.19
2023-03-15T06:34:02.044Z,97.21
2023-03-15T06:36:28.818Z,97.35
2023-03-15T06:38:55.249Z,97.42
2023-03-15T06:41:21.805Z,97.35
2023-03-15T06:43:48.262Z,97.30
2023-03-15T06:46:14.740Z,97.44
2023-03-15T06:48:41.452Z,97.19
2023-03-15T06:51:07.948Z,97.38
2023-03-15T06:53:34.830Z,97.21
2023-03-15T06:56:01.520Z,97.16
2023-03-15T06:58:27.968Z,97.22
2023-03-15T07:00:54.601Z,97.40
2023-03-15T07:03:22.336Z,97.48
2023-03-15T07:05:52.444Z,97.24
2023-03-15T07:08:19.548Z,97.17
2023-03-15T07:10:46.620Z,96.95
2023-03-15T07:13:13.440Z,97.32
2023-03-15T07:15:40.045Z,97.08
2023-03-15T07:18:06.608Z,97.09
2023-03-15T07:20:33.119Z,97.17
2023-03-15T07:22:59.585Z,97.05
2023-03-15T07:25:26.059Z,97.34
2023-03-15T07:27:53.590Z,97.30
2023-03-15T07:30:23.065Z,97.30
2023-03-15T07:32:49.512Z,97.24
2023-03-15T07:35:18.069Z,97.29
2023-03-15T07:37:44.948Z,97.26
2023-03-15T07:40:12.617Z,97.14
2023-03-15T07:42:40.471Z,97.21
2023-03-15T07:45:07.768Z,96.84
2023-03-15T07:47:34.467Z,96.85
2023-03-15T07:50:00.900Z,96.34
2023-03-15T07:52:27.707Z,96.53
2023-03-15T07:54:54.105Z,96.47
2023-03-15T07:57:20.481Z,96.16
2023-03-15T07:59:46.902Z,95.96
2023-03-15T08:02:14.994Z,95.73
2023-03-15T08:04:41.534Z,95.34
2023-03-15T08:07:08.064Z,95.19
2023-03-15T08:09:34.786Z,94.41
2023-03-15T08:12:01.722Z,93.78
2023-03-15T08:14:29.322Z,92.76
2023-03-15T08:16:55.709Z,92.04
2023-03-15T08:19:22.257Z,90.84
2023-03-15T08:21:48.746Z,90.39
2023-03-15T08:24:15.625Z,89.83
2023-03-15T08:26:44.870Z,88.89
2023-03-15T08:29:11.518Z,88.29
2023-03-15T08:31:38.132Z,87.67
2023-03-15T08:34:04.496Z,87.59
2023-03-15T08:36:32.556Z,87.52
2023-03-15T08:38:59.055Z,87.23
2023-03-15T08:41:25.388Z,87.01
2023-03-15T08:43:51.742Z,85.32
2023-03-15T08:46:18.178Z,85.37
2023-03-15T08:48:44.674Z,85.81
2023-03-15T08:51:11.535Z,85.42
2023-03-15T08:53:38.405Z,85.90
2023-03-15T08:56:04.967Z,85.42
2023-03-15T08:58:31.347Z,84.71
2023-03-15T09:00:58.339Z,83.57
2023-03-15T09:03:24.794Z,81.90
2023-03-15T09:05:55.961Z,81.65
2023-03-15T09:08:25.129Z,82.22
2023-03-15T09:10:58.318Z,80.39
2023-03-15T09:13:25.679Z,81.42
2023-03-15T09:15:53.600Z,81.41
2023-03-15T09:18:20.816Z,77.81
2023-03-15T09:20:48.054Z,74.02
2023-03-15T09:23:14.556Z,73.60
2023-03-15T09:25:41.708Z,74.15
2023-03-15T09:28:10.271Z,68.24
2023-03-15T09:30:38.230Z,67.77
2023-03-15T09:33:05.192Z,66.18
2023-03-15T09:35:31.899Z,65.99
2023-03-15T09:37:58.411Z,64.07
2023-03-15T09:40:29.260Z,63.13
2023-03-15T09:43:02.259Z,61.26
2023-03-15T09:45:50.273Z,64.55
2023-03-15T09:48:25.771Z,66.31
2023-03-15T09:51:03.118Z,64.26
2023-03-15T09:53:40.169Z,61.05
2023-03-15T09:56:28.566Z,64.39
2023-03-15T09:58:59.609Z,63.62
2023-03-15T10:01:34.613Z,67.36
2023-03-15T10:04:34.654Z,68.35
2023-03-15T10:07:03.995Z,67.58
2023-03-15T10:09:35.386Z,67.85
2023-03-15T10:12:05.294Z,68.28
2023-03-15T10:14:54.868Z,68.89
2023-03-15T10:17:32.604Z,67.59
2023-03-15T10:20:04.303Z,64.80
2023-03-15T10:22:40.746Z,65.44
2023-03-15T10:25:16.697Z,63.96
2023-03-15T10:28:08.436Z,64.08
2023-03-15T10:30:38.102Z,66.05
2023-03-15T10:33:06.868Z,66.04
2023-03-15T10:35:33.396Z,65.31
2023-03-15T10:37:59.972Z,66.10
2023-03-15T10:40:41.635Z,65.04
2023-03-15T10:43:17.167Z,63.54
2023-03-15T10:45:47.637Z,64.44
2023-03-15T10:48:14.308Z,63.69
2023-03-15T10:50:40.742Z,63.29
2023-03-15T10:53:11.351Z,61.78
2023-03-15T10:55:44.301Z,61.75
2023-03-15T10:58:17.135Z,61.43
2023-03-15T11:00:51.096Z,61.43
2023-03-15T11:03:27.657Z,60.79
2023-03-15T11:05:57.510Z,60.84
2023-03-15T11:08:44.301Z,59.58
2023-03-15T11:11:11.419Z,58.86
2023-03-15T11:13:39.704Z,58.09
2023-03-15T11:16:15.340Z,57.88
2023-03-15T11:19:12.498Z,58.92
2023-03-15T11:21:40.374Z,59.37
2023-03-15T11:24:07.374Z,59.17
2023-03-15T11:26:37.752Z,57.59
2023-03-15T11:29:07.999Z,58.51
2023-03-15T11:31:35.946Z,57.40
2023-03-15T11:34:33.365Z,56.85
2023-03-15T11:37:08.928Z,57.66
2023-03-15T11:40:11.809Z,58.07
2023-03-15T11:42:49.579Z,58.30
2023-03-15T11:45:29.489Z,58.30
2023-03-15T11:48:01.573Z,56.61
2023-03-15T11:50:28.439Z,55.92
2023-03-15T11:52:55.008Z,56.41
2023-03-15T11:55:29.066Z,55.40
2023-03-15T11:57:57.985Z,53.01
2023-03-15T12:00:26.841Z,52.99
2023-03-15T12:02:58.944Z,52.05
2023-03-15T12:05:44.785Z,53.58
2023-03-15T12:08:40.755Z,53.35
2023-03-15T12:11:12.880Z,52.46
2023-03-15T12:13:51.688Z,53.42
2023-03-15T12:16:21.200Z,54.06
2023-03-15T12:18:47.977Z,51.19
2023-03-15T12:21:31.621Z,52.91
2023-03-15T12:24:08.715Z,50.81
2023-03-15T12:27:06.915Z,52.11
2023-03-15T12:29:36.086Z,51.73
2023-03-15T12:32:02.487Z,48.46
2023-03-15T12:34:49.210Z,50.61
2023-03-15T12:37:44.626Z,51.66
2023-03-15T12:40:22.251Z,51.34
2023-03-15T12:42:48.647Z,50.19
2023-03-15T12:45:18.076Z,50.29
2023-03-15T12:48:12.616Z,49.18
2023-03-15T12:50:45.706Z,48.91
2023-03-15T12:53:37.227Z,49.55
2023-03-15T12:56:29.700Z,49.34
2023-03-15T12:59:04.907Z,49.66
2023-03-15T13:01:33.599Z,49.47
2023-03-15T13:04:01.985Z,49.95
2023-03-15T13:06:43.257Z,48.30
2023-03-15T13:09:24.613Z,48.01
2023-03-15T13:12:04.690Z,48.28
2023-03-15T13:14:54.920Z,50.13
2023-03-15T13:17:41.578Z,47.36
2023-03-15T13:20:29.685Z,49.30
2023-03-15T13:23:17.810Z,48.32
2023-03-15T13:26:08.672Z,48.17
2023-03-15T13:28:42.401Z,48.32
2023-03-15T13:31:18.028Z,48.44
2023-03-15T13:33:48.534Z,49.81
2023-03-15T13:36:17.488Z,49.00
2023-03-15T13:38:45.132Z,48.57
2023-03-15T13:41:26.555Z,49.90
2023-03-15T13:43:56.075Z,50.13
2023-03-15T13:46:26.567Z,50.96
2023-03-15T13:48:54.847Z,48.72
2023-03-15T13:51:26.528Z,48.75
2023-03-15T13:53:56.020Z,50.14
2023-03-15T13:56:40.327Z,51.76
2023-03-15T13:59:13.971Z,49.65
2023-03-15T14:01:42.496Z,49.53
2023-03-15T14:04:16.130Z,49.81
2023-03-15T14:06:45.663Z,49.75
2023-03-15T14:09:21.865Z,50.68
2023-03-15T14:12:03.093Z,49.82
2023-03-15T14:14:31.177Z,50.85
2023-03-15T14:17:05.416Z,50.04
2023-03-15T14:19:35.043Z,49.96
2023-03-15T14:22:12.595Z,47.80
2023-03-15T14:24:43.189Z,48.98
2023-03-15T14:27:21.038Z,49.58
2023-03-15T14:29:54.468Z,50.01
2023-03-15T14:32:27.570Z,49.15
2023-03-15T14:35:30.279Z,50.58
2023-03-15T14:38:22.704Z,50.28
2023-03-15T14:40:50.479Z,48.59
2023-03-15T14:43:17.200Z,48.58
2023-03-15T14:45:46.681Z,48.33
2023-03-15T14:48:31.846Z,49.15
2023-03-15T14:50:58.321Z,48.25
2023-03-15T14:53:27.891Z,48.05
2023-03-15T14:55:54.487Z,48.93
2023-03-15T14:58:22.490Z,46.68
2023-03-15T15:00:53.759Z,47.47
2023-03-15T15:03:29.169Z,48.32
2023-03-15T15:05:55.644Z,48.48
2023-03-15T15:08:24.709Z,48.76
2023-03-15T15:10:53.526Z,48.76
2023-03-15T15:13:23.614Z,48.25
2023-03-15T15:15:55.716Z,49.29
2023-03-15T15:18:24.592Z,49.96
2023-03-15T15:20:54.225Z,49.47
2023-03-15T15:23:24.562Z,49.51
2023-03-15T15:25:53.355Z,49.74
2023-03-15T15:28:33.475Z,49.67
2023-03-15T15:31:01.509Z,49.92
2023-03-15T15:33:27.909Z,49.88
2023-03-15T15:35:56.412Z,50.17
2023-03-15T15:38:37.996Z,50.27
2023-03-15T15:41:04.667Z,48.82
2023-03-15T15:43:33.502Z,49.30
2023-03-15T15:46:00.232Z,48.83
2023-03-15T15:48:26.750Z,49.83
2023-03-15T15:50:53.228Z,50.06
2023-03-15T15:53:19.749Z,49.42
2023-03-15T15:55:46.361Z,49.75
2023-03-15T15:58:14.058Z,50.35
2023-03-15T16:00:40.806Z,50.32
2023-03-15T16:03:16.517Z,50.40
2023-03-15T16:05:43.561Z,50.96
2023-03-15T16:08:24.106Z,51.38
2023-03-15T16:10:50.860Z,51.09
2023-03-15T16:13:18.054Z,51.45
2023-03-15T16:15:44.604Z,51.51
2023-03-15T16:18:12.520Z,51.43
2023-03-15T16:20:41.021Z,51.71
2023-03-15T16:23:13.600Z,51.83
2023-03-15T16:25:41.637Z,51.57
2023-03-15T16:28:11.377Z,51.60
2023-03-15T16:30:37.885Z,51.52
2023-03-15T16:33:14.292Z,52.60
2023-03-15T16:35:40.960Z,51.96
2023-03-15T16:38:14.772Z,52.45
2023-03-15T16:40:43.000Z,52.53
2023-03-15T16:43:13.797Z,53.34
2023-03-15T16:45:40.686Z,53.64
2023-03-15T16:48:07.173Z,53.91
2023-03-15T16:50:34.967Z,54.27
2023-03-15T16:53:05.192Z,54.44
2023-03-15T16:55:32.985Z,53.96
2023-03-15T16:58:04.691Z,53.34
2023-03-15T17:00:32.282Z,53.69
2023-03-15T17:03:00.059Z,53.63
2023-03-15T17:05:26.715Z,53.20
2023-03-15T17:07:55.160Z,53.46
2023-03-15T17:10:27.946Z,53.53
2023-03-15T17:12:56.216Z,53.61
2023-03-15T17:15:25.520Z,54.59
2023-03-15T17:17:53.891Z,54.13
2023-03-15T17:20:28.681Z,54.28
2023-03-15T17:23:04.835Z,54.51
2023-03-15T17:25:33.056Z,54.52
2023-03-15T17:28:00.428Z,54.90
2023-03-15T17:30:30.470Z,55.23
2023-03-15T17:32:57.439Z,55.76
2023-03-15T17:35:28.898Z,55.96
2023-03-15T17:37:55.967Z,56.63
2023-03-15T17:40:27.771Z,56.84
2023-03-15T17:42:56.070Z,57.34
2023-03-15T17:45:26.640Z,57.82
2023-03-15T17:47:56.535Z,58.23
2023-03-15T17:50:26.313Z,58.67
2023-03-15T17:53:02.129Z,58.54
2023-03-15T17:55:30.934Z,58.63
2023-03-15T17:57:57.411Z,58.78
2023-03-15T18:00:25.085Z,59.01
2023-03-15T18:02:56.392Z,59.15
2023-03-15T18:05:29.196Z,59.39
2023-03-15T18:07:59.905Z,59.72
2023-03-15T18:10:34.578Z,60.08
2023-03-15T18:13:01.370Z,60.01
2023-03-15T18:15:28.882Z,60.37
2023-03-15T18:17:55.717Z,60.53
2023-03-15T18:20:24.267Z,60.96
2023-03-15T18:22:51.882Z,60.86
2023-03-15T18:25:30.342Z,61.18
2023-03-15T18:27:57.287Z,60.95
2023-03-15T18:30:26.025Z,61.26
2023-03-15T18:32:53.705Z,61.65
2023-03-15T18:35:33.121Z,61.84
2023-03-15T18:37:59.970Z,61.86
2023-03-15T18:40:29.568Z,62.23
2023-03-15T18:42:57.922Z,62.48
2023-03-15T18:45:33.831Z,62.83
2023-03-15T18:48:00.451Z,62.82
2023-03-15T18:50:28.459Z,62.83
2023-03-15T18:52:55.214Z,62.88
2023-03-15T18:55:23.008Z,63.29
2023-03-15T18:57:51.955Z,63.55
2023-03-15T19:00:26.269Z,63.52
2023-03-15T19:02:55.297Z,64.10
2023-03-15T19:05:22.030Z,64.12
2023-03-15T19:07:48.598Z,64.17
2023-03-15T19:10:19.069Z,64.40
2023-03-15T19:12:46.390Z,64.36
2023-03-15T19:15:17.160Z,64.76
2023-03-15T19:17:45.576Z,64.87
2023-03-15T19:20:14.833Z,64.96
2023-03-15T19:22:41.750Z,65.12
2023-03-15T19:25:11.548Z,65.41
2023-03-15T19:27:38.088Z,65.62
2023-03-15T19:30:08.483Z,65.87
2023-03-15T19:32:36.097Z,66.36
2023-03-15T19:35:02.657Z,66.28
2023-03-15T19:37:29.183Z,66.79
2023-03-15T19:39:55.615Z,66.62
2023-03-15T19:42:22.072Z,66.72
2023-03-15T19:44:48.639Z,66.60
2023-03-15T19:47:15.054Z,66.51
2023-03-15T19:49:41.494Z,66.55
2023-03-15T19:52:07.944Z,66.55
2023-03-15T19:54:34.459Z,66.80
2023-03-15T19:57:01.048Z,66.80
2023-03-15T19:59:27.575Z,67.21
2023-03-15T20:01:54.017Z,67.25
2023-03-15T20:04:20.489Z,67.24
2023-03-15T20:06:46.885Z,67.30
2023-03-15T20:09:13.581Z,67.52
2023-03-15T20:11:39.996Z,67.79
2023-03-15T20:14:06.448Z,68.10
2023-03-15T20:16:33.050Z,68.54
2023-03-15T20:18:59.465Z,68.42
2023-03-15T20:21:25.948Z,69.01
2023-03-15T20:23:52.415Z,69.42
2023-03-15T20:26:19.062Z,69.55
2023-03-15T20:28:47.118Z,69.80
2023-03-15T20:31:18.763Z,70.37
2023-03-15T20:33:48.591Z,70.39
2023-03-15T20:36:16.511Z,70.50
2023-03-15T20:38:43.216Z,70.72
2023-03-15T20:41:09.706Z,70.55
2023-03-15T20:43:36.105Z,70.80
2023-03-15T20:46:04.261Z,70.52
2023-03-15T20:48:34.951Z,70.36
2023-03-15T20:51:04.336Z,70.32
2023-03-15T20:53:33.126Z,70.15
2023-03-15T20:55:59.645Z,70.31
2023-03-15T20:58:26.978Z,70.32
2023-03-15T21:01:08.878Z,70.28
2023-03-15T21:03:36.639Z,70.18
2023-03-15T21:06:07.126Z,70.12
2023-03-15T21:08:34.824Z,70.08
2023-03-15T21:11:03.624Z,70.05
2023-03-15T21:13:30.377Z,70.03
2023-03-15T21:15:57.084Z,69.98
2023-03-15T21:18:24.217Z,69.83
2023-03-15T21:20:58.566Z,69.87
2023-03-15T21:23:27.993Z,70.16
2023-03-15T21:25:55.689Z,70.25
2023-03-15T21:28:23.322Z,70.42
2023-03-15T21:30:54.516Z,70.17
2023-03-15T21:33:22.551Z,70.47
2023-03-15T21:35:49.787Z,70.45
2023-03-15T21:38:17.198Z,70.28
2023-03-15T21:40:45.407Z,70.51
2023-03-15T21:43:12.623Z,70.49
2023-03-15T21:45:39.382Z,70.53
2023-03-15T21:48:06.274Z,70.68
2023-03-15T21:50:32.887Z,70.62
2023-03-15T21:52:59.272Z,70.73
2023-03-15T21:55:25.728Z,70.62
2023-03-15T21:57:52.090Z,70.64
2023-03-15T22:00:20.214Z,70.81
2023-03-15T22:02:46.891Z,71.00
2023-03-15T22:05:13.879Z,71.14
2023-03-15T22:07:42.026Z,71.11
2023-03-15T22:10:09.889Z,71.19
2023-03-15T22:12:37.666Z,71.41
2023-03-15T22:15:06.494Z,71.59
2023-03-15T22:17:33.834Z,72.17
2023-03-15T22:20:00.913Z,72.07
2023-03-15T22:22:27.971Z,72.10
2023-03-15T22:24:54.418Z,72.15
2023-03-15T22:27:20.819Z,71.89
2023-03-15T22:29:47.175Z,71.68
2023-03-15T22:32:14.164Z,71.88
2023-03-15T22:34:40.590Z,71.65
2023-03-15T22:37:07.104Z,71.70
2023-03-15T22:39:34.141Z,71.54
2023-03-15T22:42:00.545Z,71.50
2023-03-15T22:44:28.917Z,71.45
2023-03-15T22:46:56.463Z,71.32
2023-03-15T22:49:23.660Z,71.60
2023-03-15T22:51:50.023Z,71.58
2023-03-15T22:54:16.522Z,71.72
2023-03-15T22:56:43.214Z,71.71
2023-03-15T22:59:10.021Z,71.63
2023-03-15T23:01:36.508Z,71.70
2023-03-15T23:04:03.558Z,71.80
2023-03-15T23:06:30.015Z,71.75
2023-03-15T23:08:56.382Z,71.80
2023-03-15T23:11:22.956Z,71.98
2023-03-15T23:13:49.350Z,72.00
2023-03-15T23:16:17.010Z,71.83
2023-03-15T23:18:45.296Z,71.92
2023-03-15T23:21:14.055Z,72.12
2023-03-15T23:23:42.681Z,72.26
2023-03-15T23:26:09.448Z,72.20
2023-03-15T23:28:35.902Z,72.54
2023-03-15T23:31:05.440Z,72.65
2023-03-15T23:33:35.340Z,72.59
2023-03-15T23:36:03.992Z,72.58
2023-03-15T23:38:30.370Z,72.54
2023-03-15T23:40:59.027Z,72.62
2023-03-15T23:43:25.698Z,72.64
2023-03-15T23:45:57.442Z,72.64
2023-03-15T23:48:24.343Z,72.76
2023-03-15T23:50:55.375Z,72.86
2023-03-15T23:53:22.059Z,72.88
2023-03-15T23:55:48.859Z,72.89
2023-03-15T23:58:15.480Z,72.72
